createdAt,value
2022-08-26T00:00:57.452Z,24.68
2022-08-26T00:06:01.548Z,24.57
2022-08-26T00:11:07.799Z,24.50
2022-08-26T00:16:13.667Z,24.44
2022-08-26T00:21:19.053Z,24.39
2022-08-26T00:26:23.449Z,24.20
2022-08-26T00:31:33.431Z,24.01
2022-08-26T00:36:40.754Z,23.87
2022-08-26T00:41:45.184Z,23.88
2022-08-26T00:47:00.368Z,24.01
2022-08-26T00:52:13.282Z,24.08
2022-08-26T00:57:21.896Z,24.10
2022-08-26T01:02:26.506Z,24.05
2022-08-26T01:07:35.466Z,24.04
2022-08-26T01:12:51.640Z,23.99
2022-08-26T01:17:55.985Z,23.76
2022-08-26T01:23:05.146Z,23.80
2022-08-26T01:28:17.349Z,24.26
2022-08-26T01:33:42.232Z,24.75
2022-08-26T01:38:47.357Z,24.69
2022-08-26T01:43:56.237Z,24.42
2022-08-26T01:49:06.477Z,24.18
2022-08-26T01:54:13.876Z,24.01
2022-08-26T01:59:20.788Z,23.76
2022-08-26T02:04:34.422Z,23.55
2022-08-26T02:09:41.632Z,23.37
2022-08-26T02:14:54.336Z,23.27
2022-08-26T02:19:59.201Z,23.26
2022-08-26T02:25:52.452Z,23.24
2022-08-26T02:30:56.834Z,23.17
2022-08-26T02:36:01.332Z,23.13
2022-08-26T02:41:06.507Z,23.10
2022-08-26T02:46:12.313Z,23.06
2022-08-26T02:51:25.817Z,22.97
2022-08-26T02:56:30.055Z,22.91
2022-08-26T03:01:36.902Z,22.83
2022-08-26T03:06:41.547Z,22.74
2022-08-26T03:11:47.654Z,22.67
2022-08-26T03:16:54.852Z,22.56
2022-08-26T03:22:00.216Z,22.56
2022-08-26T03:27:07.272Z,22.58
2022-08-26T03:32:11.608Z,22.52
2022-08-26T03:37:16.126Z,22.47
2022-08-26T03:42:22.664Z,22.49
2022-08-26T03:47:26.751Z,22.47
2022-08-26T03:52:31.996Z,22.46
2022-08-26T03:57:36.653Z,22.45
2022-08-26T04:02:40.962Z,22.39
2022-08-26T04:07:46.815Z,22.28
2022-08-26T04:12:52.772Z,22.15
2022-08-26T04:17:57.267Z,22.06
2022-08-26T04:23:02.209Z,22.07
2022-08-26T04:28:07.315Z,22.07
2022-08-26T04:33:14.329Z,22.09
2022-08-26T04:38:20.525Z,22.15
2022-08-26T04:43:30.920Z,22.20
2022-08-26T04:48:35.944Z,22.30
2022-08-26T04:53:40.413Z,22.78
2022-08-26T04:58:44.835Z,23.40
2022-08-26T05:03:50.338Z,23.28
2022-08-26T05:08:56.078Z,23.09
2022-08-26T05:14:02.340Z,23.26
2022-08-26T05:19:08.385Z,24.32
2022-08-26T05:24:13.488Z,24.95
2022-08-26T05:29:18.048Z,25.12
2022-08-26T05:34:25.743Z,25.09
2022-08-26T05:39:35.233Z,25.01
2022-08-26T05:44:53.819Z,25.08
2022-08-26T05:50:02.628Z,25.14
2022-08-26T05:55:07.550Z,25.08
2022-08-26T06:00:15.985Z,25.15
2022-08-26T06:05:21.105Z,25.34
2022-08-26T06:10:32.401Z,25.47
2022-08-26T06:15:46.051Z,25.65
2022-08-26T06:20:57.689Z,25.74
2022-08-26T06:26:04.073Z,25.42
2022-08-26T06:31:08.322Z,25.34
2022-08-26T06:36:22.138Z,25.51
2022-08-26T06:41:28.572Z,25.76
2022-08-26T06:46:33.779Z,25.97
2022-08-26T06:51:41.286Z,26.14
2022-08-26T06:56:45.559Z,26.37
2022-08-26T07:01:53.541Z,26.49
2022-08-26T07:06:58.428Z,26.62
2022-08-26T07:12:02.839Z,26.41
2022-08-26T07:17:12.178Z,25.96
2022-08-26T07:22:19.202Z,25.78
2022-08-26T07:27:26.392Z,25.66
2022-08-26T07:32:30.645Z,25.77
2022-08-26T07:37:39.227Z,26.00
2022-08-26T07:42:43.718Z,26.13
2022-08-26T07:47:48.577Z,26.29
2022-08-26T07:52:52.610Z,26.46
2022-08-26T07:57:58.420Z,26.43
2022-08-26T08:03:06.390Z,26.31
2022-08-26T08:08:17.320Z,26.18
2022-08-26T08:13:33.464Z,26.21
2022-08-26T08:18:37.540Z,26.31
2022-08-26T08:23:41.888Z,26.47
2022-08-26T08:28:49.402Z,26.71
2022-08-26T08:33:54.347Z,26.81
2022-08-26T08:38:58.390Z,26.88
2022-08-26T08:44:04.531Z,27.09
2022-08-26T08:49:11.583Z,27.32
2022-08-26T08:54:16.531Z,27.69
2022-08-26T08:59:24.588Z,27.98
2022-08-26T09:05:17.810Z,27.94
2022-08-26T09:10:34.119Z,27.89
2022-08-26T09:16:17.439Z,28.03
2022-08-26T09:21:26.213Z,28.55
2022-08-26T09:26:48.170Z,29.17
2022-08-26T09:32:14.253Z,29.81
2022-08-26T09:43:09.408Z,29.96
2022-08-26T09:48:36.646Z,30.01
2022-08-26T09:54:30.248Z,30.10
2022-08-26T09:59:34.892Z,30.12
2022-08-26T10:04:39.284Z,30.28
2022-08-26T10:09:45.057Z,30.49
2022-08-26T10:14:57.134Z,30.51
2022-08-26T10:20:37.071Z,30.32
2022-08-26T10:25:54.099Z,30.30
2022-08-26T10:31:51.410Z,30.28
2022-08-26T10:37:16.254Z,30.19
2022-08-26T10:43:00.489Z,30.10
2022-08-26T10:48:18.679Z,30.25
2022-08-26T10:54:00.874Z,30.44
2022-08-26T10:59:33.084Z,30.50
2022-08-26T11:04:56.278Z,30.36
2022-08-26T11:10:22.606Z,30.24
2022-08-26T11:16:03.295Z,30.12
2022-08-26T11:21:57.449Z,30.15
2022-08-26T11:27:06.815Z,30.40
2022-08-26T11:32:56.667Z,30.77
2022-08-26T11:38:32.286Z,31.19
2022-08-26T11:43:43.358Z,31.84
2022-08-26T11:48:49.306Z,32.24
2022-08-26T11:54:13.242Z,32.66
2022-08-26T12:04:49.941Z,33.52
2022-08-26T12:10:02.710Z,33.74
2022-08-26T12:15:23.478Z,33.84
2022-08-26T12:20:55.090Z,33.79
2022-08-26T12:26:23.771Z,33.55
2022-08-26T12:31:32.173Z,33.49
2022-08-26T12:36:47.492Z,33.48
2022-08-26T12:41:58.406Z,33.27
2022-08-26T12:47:35.199Z,33.01
2022-08-26T12:53:13.180Z,32.78
2022-08-26T12:58:17.824Z,32.90
2022-08-26T13:03:48.680Z,32.98
2022-08-26T13:08:58.295Z,32.75
2022-08-26T13:14:23.779Z,32.62
2022-08-26T13:19:30.152Z,32.58
2022-08-26T13:24:42.919Z,32.75
2022-08-26T13:29:48.579Z,33.05
2022-08-26T13:34:57.606Z,33.45
2022-08-26T13:40:07.460Z,33.71
2022-08-26T13:45:12.622Z,33.96
2022-08-26T13:50:17.080Z,34.15
2022-08-26T13:55:21.528Z,34.32
2022-08-26T14:00:26.842Z,34.18
2022-08-26T14:05:31.972Z,33.88
2022-08-26T14:10:37.536Z,33.50
2022-08-26T14:15:42.771Z,33.12
2022-08-26T14:20:51.254Z,32.85
2022-08-26T14:25:57.460Z,32.65
2022-08-26T14:31:05.257Z,32.55
2022-08-26T14:36:29.733Z,32.45
2022-08-26T14:41:41.170Z,32.57
2022-08-26T14:46:51.399Z,32.98
2022-08-26T14:52:14.375Z,34.42
2022-08-26T14:57:23.876Z,36.78
2022-08-26T15:02:33.146Z,38.69
2022-08-26T15:07:40.333Z,40.16
2022-08-26T15:12:45.642Z,41.38
2022-08-26T15:17:51.203Z,42.23
2022-08-26T15:22:55.135Z,42.70
2022-08-26T15:28:02.303Z,42.96
2022-08-26T15:33:15.227Z,43.26
2022-08-26T15:38:22.081Z,43.37
2022-08-26T15:43:28.975Z,43.32
2022-08-26T15:48:33.335Z,43.05
2022-08-26T15:53:37.691Z,42.84
2022-08-26T15:58:44.904Z,42.73
2022-08-26T16:03:56.074Z,42.44
2022-08-26T16:09:01.100Z,42.06
2022-08-26T16:14:06.580Z,41.61
2022-08-26T16:19:12.371Z,41.27
2022-08-26T16:24:17.651Z,40.92
2022-08-26T16:29:23.782Z,40.54
2022-08-26T16:34:28.043Z,40.14
2022-08-26T16:39:32.190Z,39.65
2022-08-26T16:44:46.151Z,39.09
2022-08-26T16:49:52.131Z,38.48
2022-08-26T16:54:56.594Z,37.77
2022-08-26T17:00:07.937Z,37.01
2022-08-26T17:05:15.688Z,36.15
2022-08-26T17:10:21.296Z,35.28
2022-08-26T17:15:26.350Z,34.43
2022-08-26T17:20:30.731Z,33.57
2022-08-26T17:25:37.782Z,32.56
2022-08-26T17:30:43.446Z,31.35
2022-08-26T17:35:47.450Z,30.46
2022-08-26T17:40:52.577Z,29.62
2022-08-26T17:46:06.878Z,28.90
2022-08-26T17:51:17.104Z,28.20
2022-08-26T17:56:26.934Z,27.55
2022-08-26T18:01:31.976Z,27.07
2022-08-26T18:06:36.420Z,26.72
2022-08-26T18:11:41.797Z,26.32
2022-08-26T18:16:46.534Z,25.93
2022-08-26T18:21:52.539Z,25.59
2022-08-26T18:26:57.779Z,25.32
2022-08-26T18:32:02.115Z,25.05
2022-08-26T18:43:17.062Z,24.36
2022-08-26T18:48:24.873Z,24.18
2022-08-26T18:53:32.114Z,24.01
2022-08-26T18:58:41.599Z,24.37
2022-08-26T19:03:47.004Z,25.63
2022-08-26T19:08:51.715Z,25.66
2022-08-26T19:13:58.247Z,24.80
2022-08-26T19:19:04.135Z,24.28
2022-08-26T19:24:17.688Z,23.88
2022-08-26T19:29:25.350Z,23.59
2022-08-26T19:34:30.618Z,23.38
2022-08-26T19:39:35.362Z,23.70
2022-08-26T19:44:59.140Z,24.69
2022-08-26T19:50:07.652Z,25.20
2022-08-26T19:55:20.588Z,25.51
2022-08-26T20:00:30.284Z,25.36
2022-08-26T20:05:35.438Z,24.44
2022-08-26T20:10:40.216Z,23.78
2022-08-26T20:15:47.400Z,23.28
2022-08-26T20:21:10.978Z,23.37
2022-08-26T20:26:15.240Z,24.25
2022-08-26T20:31:20.057Z,24.63
2022-08-26T20:36:30.000Z,24.85
2022-08-26T20:41:34.389Z,24.89
2022-08-26T20:46:39.283Z,24.93
2022-08-26T20:51:45.012Z,24.90
2022-08-26T20:56:53.088Z,24.86
2022-08-26T21:01:59.479Z,24.77
2022-08-26T21:07:03.872Z,24.65
2022-08-26T21:12:09.981Z,24.61
2022-08-26T21:17:14.788Z,24.58
2022-08-26T21:22:21.997Z,24.49
2022-08-26T21:27:27.902Z,24.41
2022-08-26T21:32:33.469Z,24.28
2022-08-26T21:37:37.589Z,24.20
2022-08-26T21:42:41.937Z,24.18
2022-08-26T21:47:46.979Z,24.09
2022-08-26T21:52:51.069Z,24.02
2022-08-26T21:57:55.568Z,23.97
2022-08-26T22:03:01.444Z,23.97
2022-08-26T22:08:05.650Z,23.96
2022-08-26T22:13:10.668Z,23.97
2022-08-26T22:18:16.346Z,24.09
2022-08-26T22:23:21.427Z,24.11
2022-08-26T22:28:26.509Z,23.92
2022-08-26T22:33:30.672Z,23.86
2022-08-26T22:38:35.507Z,23.78
2022-08-26T22:43:39.816Z,23.75
2022-08-26T22:48:44.389Z,23.70
2022-08-26T22:53:48.534Z,23.54
2022-08-26T22:58:54.005Z,23.39
2022-08-26T23:03:58.439Z,23.28
2022-08-26T23:09:02.810Z,23.23
2022-08-26T23:14:10.670Z,23.19
2022-08-26T23:19:18.088Z,23.13
2022-08-26T23:24:22.660Z,23.07
2022-08-26T23:29:28.280Z,22.98
2022-08-26T23:34:51.918Z,22.93
2022-08-26T23:39:56.925Z,22.86
2022-08-26T23:45:01.657Z,22.81
2022-08-26T23:50:08.221Z,22.76
2022-08-26T23:55:14.022Z,22.70
